sensor_id;sensor_type;location;lat;lon;timestamp;P1;durP1;ratioP1;P2;durP2;ratioP2
20038;SDS011;21737;42.868;25.320;2023-06-05T00:01:08;9.23;;;6.83;;
20038;SDS011;21737;42.868;25.320;2023-06-05T00:04:11;9.03;;;6.57;;
20038;SDS011;21737;42.868;25.320;2023-06-05T00:07:13;8.90;;;6.80;;
20038;SDS011;21737;42.868;25.320;2023-06-05T00:10:15;8.70;;;6.27;;
20038;SDS011;21737;42.868;25.320;2023-06-05T00:13:16;8.63;;;6.87;;
20038;SDS011;21737;42.868;25.320;2023-06-05T00:16:18;8.97;;;6.83;;
20038;SDS011;21737;42.868;25.320;2023-06-05T00:19:20;10.90;;;7.07;;
20038;SDS011;21737;42.868;25.320;2023-06-05T00:22:22;9.03;;;6.80;;
20038;SDS011;21737;42.868;25.320;2023-06-05T00:25:23;11.70;;;6.97;;
20038;SDS011;21737;42.868;25.320;2023-06-05T00:28:25;12.70;;;7.10;;
20038;SDS011;21737;42.868;25.320;2023-06-05T00:31:27;8.73;;;6.30;;
20038;SDS011;21737;42.868;25.320;2023-06-05T00:34:29;7.20;;;6.20;;
20038;SDS011;21737;42.868;25.320;2023-06-05T00:37:31;7.73;;;6.40;;
20038;SDS011;21737;42.868;25.320;2023-06-05T00:40:33;8.93;;;6.60;;
20038;SDS011;21737;42.868;25.320;2023-06-05T00:43:34;7.97;;;6.13;;
20038;SDS011;21737;42.868;25.320;2023-06-05T00:46:37;13.87;;;6.57;;
20038;SDS011;21737;42.868;25.320;2023-06-05T00:49:38;9.00;;;6.30;;
20038;SDS011;21737;42.868;25.320;2023-06-05T00:52:40;7.63;;;5.87;;
20038;SDS011;21737;42.868;25.320;2023-06-05T00:55:43;8.57;;;6.03;;
20038;SDS011;21737;42.868;25.320;2023-06-05T00:58:44;10.77;;;6.50;;
20038;SDS011;21737;42.868;25.320;2023-06-05T01:01:46;8.27;;;6.40;;
20038;SDS011;21737;42.868;25.320;2023-06-05T01:04:49;9.20;;;6.60;;
20038;SDS011;21737;42.868;25.320;2023-06-05T01:07:52;10.13;;;6.50;;
20038;SDS011;21737;42.868;25.320;2023-06-05T01:10:54;9.27;;;6.77;;
20038;SDS011;21737;42.868;25.320;2023-06-05T01:14:02;8.80;;;6.80;;
20038;SDS011;21737;42.868;25.320;2023-06-05T01:17:09;10.30;;;7.40;;
20038;SDS011;21737;42.868;25.320;2023-06-05T01:20:12;9.97;;;6.90;;
20038;SDS011;21737;42.868;25.320;2023-06-05T01:23:13;8.93;;;7.20;;
20038;SDS011;21737;42.868;25.320;2023-06-05T01:26:18;9.67;;;6.57;;
20038;SDS011;21737;42.868;25.320;2023-06-05T01:29:22;13.37;;;6.90;;
20038;SDS011;21737;42.868;25.320;2023-06-05T01:32:28;12.07;;;7.10;;
20038;SDS011;21737;42.868;25.320;2023-06-05T01:35:33;10.70;;;7.33;;
20038;SDS011;21737;42.868;25.320;2023-06-05T01:38:36;11.13;;;6.93;;
20038;SDS011;21737;42.868;25.320;2023-06-05T01:41:38;11.33;;;7.33;;
20038;SDS011;21737;42.868;25.320;2023-06-05T01:44:40;10.70;;;7.23;;
20038;SDS011;21737;42.868;25.320;2023-06-05T01:47:43;11.60;;;7.37;;
20038;SDS011;21737;42.868;25.320;2023-06-05T01:50:46;9.30;;;7.10;;
20038;SDS011;21737;42.868;25.320;2023-06-05T01:53:48;9.57;;;7.13;;
20038;SDS011;21737;42.868;25.320;2023-06-05T01:56:50;10.07;;;7.47;;
20038;SDS011;21737;42.868;25.320;2023-06-05T01:59:54;8.80;;;7.00;;
20038;SDS011;21737;42.868;25.320;2023-06-05T02:02:56;9.00;;;7.10;;
20038;SDS011;21737;42.868;25.320;2023-06-05T02:05:58;10.97;;;6.77;;
20038;SDS011;21737;42.868;25.320;2023-06-05T02:09:00;12.00;;;6.87;;
20038;SDS011;21737;42.868;25.320;2023-06-05T02:12:04;14.10;;;7.07;;
20038;SDS011;21737;42.868;25.320;2023-06-05T02:15:08;11.50;;;7.00;;
20038;SDS011;21737;42.868;25.320;2023-06-05T02:18:14;8.80;;;6.80;;
20038;SDS011;21737;42.868;25.320;2023-06-05T02:21:17;10.23;;;6.97;;
20038;SDS011;21737;42.868;25.320;2023-06-05T02:24:18;17.03;;;7.83;;
20038;SDS011;21737;42.868;25.320;2023-06-05T02:27:21;10.27;;;7.33;;
20038;SDS011;21737;42.868;25.320;2023-06-05T02:30:26;10.10;;;7.60;;
20038;SDS011;21737;42.868;25.320;2023-06-05T02:33:28;12.13;;;8.37;;
20038;SDS011;21737;42.868;25.320;2023-06-05T02:36:29;11.40;;;7.60;;
20038;SDS011;21737;42.868;25.320;2023-06-05T02:39:35;10.03;;;7.60;;
20038;SDS011;21737;42.868;25.320;2023-06-05T02:42:36;10.50;;;7.73;;
20038;SDS011;21737;42.868;25.320;2023-06-05T02:45:39;11.13;;;7.63;;
20038;SDS011;21737;42.868;25.320;2023-06-05T02:48:42;10.27;;;7.47;;
20038;SDS011;21737;42.868;25.320;2023-06-05T02:51:44;11.17;;;7.80;;
20038;SDS011;21737;42.868;25.320;2023-06-05T02:54:47;9.97;;;7.00;;
20038;SDS011;21737;42.868;25.320;2023-06-05T02:57:50;14.50;;;7.90;;
20038;SDS011;21737;42.868;25.320;2023-06-05T03:00:58;9.77;;;7.40;;
20038;SDS011;21737;42.868;25.320;2023-06-05T03:04:09;12.53;;;7.90;;
20038;SDS011;21737;42.868;25.320;2023-06-05T03:07:13;11.33;;;7.73;;
20038;SDS011;21737;42.868;25.320;2023-06-05T03:10:17;10.77;;;7.47;;
20038;SDS011;21737;42.868;25.320;2023-06-05T03:13:18;10.17;;;7.63;;
20038;SDS011;21737;42.868;25.320;2023-06-05T03:16:20;9.70;;;7.20;;
20038;SDS011;21737;42.868;25.320;2023-06-05T03:19:27;10.03;;;7.27;;
20038;SDS011;21737;42.868;25.320;2023-06-05T03:22:33;10.90;;;7.23;;
20038;SDS011;21737;42.868;25.320;2023-06-05T03:25:36;10.30;;;7.10;;
20038;SDS011;21737;42.868;25.320;2023-06-05T03:28:39;8.63;;;6.57;;
20038;SDS011;21737;42.868;25.320;2023-06-05T03:31:44;11.47;;;6.73;;
20038;SDS011;21737;42.868;25.320;2023-06-05T03:34:47;7.67;;;6.10;;
20038;SDS011;21737;42.868;25.320;2023-06-05T03:37:52;9.93;;;6.97;;
20038;SDS011;21737;42.868;25.320;2023-06-05T03:40:53;9.73;;;6.50;;
20038;SDS011;21737;42.868;25.320;2023-06-05T03:43:55;8.83;;;6.03;;
20038;SDS011;21737;42.868;25.320;2023-06-05T03:46:58;10.47;;;7.13;;
20038;SDS011;21737;42.868;25.320;2023-06-05T03:50:00;10.30;;;6.40;;
20038;SDS011;21737;42.868;25.320;2023-06-05T03:53:09;11.33;;;6.73;;
20038;SDS011;21737;42.868;25.320;2023-06-05T03:56:16;9.73;;;6.57;;
20038;SDS011;21737;42.868;25.320;2023-06-05T03:59:17;11.77;;;6.77;;
20038;SDS011;21737;42.868;25.320;2023-06-05T04:02:29;11.83;;;6.77;;
20038;SDS011;21737;42.868;25.320;2023-06-05T04:05:31;9.00;;;6.17;;
20038;SDS011;21737;42.868;25.320;2023-06-05T04:08:33;10.83;;;6.07;;
20038;SDS011;21737;42.868;25.320;2023-06-05T04:11:35;9.00;;;5.50;;
20038;SDS011;21737;42.868;25.320;2023-06-05T04:14:37;9.40;;;5.70;;
20038;SDS011;21737;42.868;25.320;2023-06-05T04:17:40;7.10;;;5.87;;
20038;SDS011;21737;42.868;25.320;2023-06-05T04:20:44;11.80;;;6.60;;
20038;SDS011;21737;42.868;25.320;2023-06-05T04:23:45;13.20;;;7.37;;
20038;SDS011;21737;42.868;25.320;2023-06-05T04:26:47;9.13;;;6.17;;
20038;SDS011;21737;42.868;25.320;2023-06-05T04:29:49;7.53;;;5.30;;
20038;SDS011;21737;42.868;25.320;2023-06-05T04:32:52;14.87;;;5.93;;
20038;SDS011;21737;42.868;25.320;2023-06-05T04:35:59;7.20;;;5.10;;
20038;SDS011;21737;42.868;25.320;2023-06-05T04:39:02;7.07;;;5.00;;
20038;SDS011;21737;42.868;25.320;2023-06-05T04:42:06;16.27;;;6.87;;
20038;SDS011;21737;42.868;25.320;2023-06-05T04:45:14;7.53;;;5.20;;
20038;SDS011;21737;42.868;25.320;2023-06-05T04:48:20;5.87;;;4.60;;
20038;SDS011;21737;42.868;25.320;2023-06-05T04:51:23;10.63;;;5.17;;
20038;SDS011;21737;42.868;25.320;2023-06-05T04:54:25;5.63;;;4.50;;
20038;SDS011;21737;42.868;25.320;2023-06-05T04:57:27;8.83;;;4.87;;
20038;SDS011;21737;42.868;25.320;2023-06-05T05:00:35;6.50;;;5.60;;
20038;SDS011;21737;42.868;25.320;2023-06-05T05:03:39;6.30;;;5.20;;
20038;SDS011;21737;42.868;25.320;2023-06-05T05:06:44;6.80;;;5.60;;
20038;SDS011;21737;42.868;25.320;2023-06-05T05:09:49;8.77;;;4.93;;
20038;SDS011;21737;42.868;25.320;2023-06-05T05:12:51;7.53;;;6.70;;
20038;SDS011;21737;42.868;25.320;2023-06-05T05:15:54;7.70;;;6.73;;
20038;SDS011;21737;42.868;25.320;2023-06-05T05:18:57;6.27;;;4.63;;
20038;SDS011;21737;42.868;25.320;2023-06-05T05:21:59;5.57;;;4.33;;
20038;SDS011;21737;42.868;25.320;2023-06-05T05:25:01;7.77;;;4.37;;
20038;SDS011;21737;42.868;25.320;2023-06-05T05:28:03;9.13;;;6.13;;
20038;SDS011;21737;42.868;25.320;2023-06-05T05:31:05;5.20;;;4.33;;
20038;SDS011;21737;42.868;25.320;2023-06-05T05:34:09;10.53;;;6.40;;
20038;SDS011;21737;42.868;25.320;2023-06-05T05:37:12;16.13;;;10.93;;
20038;SDS011;21737;42.868;25.320;2023-06-05T05:40:13;4.20;;;3.80;;
20038;SDS011;21737;42.868;25.320;2023-06-05T05:43:16;5.17;;;3.83;;
20038;SDS011;21737;42.868;25.320;2023-06-05T05:46:17;6.47;;;3.80;;
20038;SDS011;21737;42.868;25.320;2023-06-05T05:49:19;5.30;;;3.77;;
20038;SDS011;21737;42.868;25.320;2023-06-05T05:52:21;10.23;;;4.10;;
20038;SDS011;21737;42.868;25.320;2023-06-05T05:55:23;5.57;;;3.67;;
20038;SDS011;21737;42.868;25.320;2023-06-05T05:58:25;3.47;;;3.13;;
20038;SDS011;21737;42.868;25.320;2023-06-05T06:01:27;10.73;;;3.70;;
20038;SDS011;21737;42.868;25.320;2023-06-05T06:04:29;4.80;;;3.20;;
20038;SDS011;21737;42.868;25.320;2023-06-05T06:07:31;9.17;;;4.70;;
20038;SDS011;21737;42.868;25.320;2023-06-05T06:10:33;9.90;;;3.50;;
20038;SDS011;21737;42.868;25.320;2023-06-05T06:13:35;3.50;;;3.10;;
20038;SDS011;21737;42.868;25.320;2023-06-05T06:16:37;8.80;;;4.00;;
20038;SDS011;21737;42.868;25.320;2023-06-05T06:19:39;8.43;;;3.13;;
20038;SDS011;21737;42.868;25.320;2023-06-05T06:22:42;6.95;;;3.67;;
20038;SDS011;21737;42.868;25.320;2023-06-05T06:25:43;4.88;;;2.97;;
20038;SDS011;21737;42.868;25.320;2023-06-05T06:28:45;7.50;;;4.10;;
20038;SDS011;21737;42.868;25.320;2023-06-05T06:31:47;13.65;;;4.03;;
20038;SDS011;21737;42.868;25.320;2023-06-05T06:34:49;3.88;;;3.08;;
20038;SDS011;21737;42.868;25.320;2023-06-05T06:37:55;3.17;;;2.88;;
20038;SDS011;21737;42.868;25.320;2023-06-05T06:40:57;7.00;;;4.43;;
20038;SDS011;21737;42.868;25.320;2023-06-05T06:44:00;9.40;;;3.55;;
20038;SDS011;21737;42.868;25.320;2023-06-05T06:47:04;3.38;;;2.58;;
20038;SDS011;21737;42.868;25.320;2023-06-05T06:50:06;4.40;;;2.78;;
20038;SDS011;21737;42.868;25.320;2023-06-05T06:53:08;6.47;;;3.20;;
20038;SDS011;21737;42.868;25.320;2023-06-05T06:56:10;11.27;;;3.88;;
20038;SDS011;21737;42.868;25.320;2023-06-05T06:59:12;3.95;;;2.83;;
20038;SDS011;21737;42.868;25.320;2023-06-05T07:02:15;4.57;;;3.17;;
20038;SDS011;21737;42.868;25.320;2023-06-05T07:05:17;9.98;;;4.13;;
20038;SDS011;21737;42.868;25.320;2023-06-05T07:08:22;7.30;;;3.95;;
20038;SDS011;21737;42.868;25.320;2023-06-05T07:11:24;5.93;;;3.42;;
20038;SDS011;21737;42.868;25.320;2023-06-05T07:14:27;3.40;;;3.00;;
20038;SDS011;21737;42.868;25.320;2023-06-05T07:17:29;5.80;;;4.15;;
20038;SDS011;21737;42.868;25.320;2023-06-05T07:20:31;6.70;;;3.25;;
20038;SDS011;21737;42.868;25.320;2023-06-05T07:23:33;9.13;;;4.05;;
20038;SDS011;21737;42.868;25.320;2023-06-05T07:26:35;8.82;;;2.97;;
20038;SDS011;21737;42.868;25.320;2023-06-05T07:29:37;5.20;;;3.63;;
20038;SDS011;21737;42.868;25.320;2023-06-05T07:32:39;6.20;;;3.53;;
20038;SDS011;21737;42.868;25.320;2023-06-05T07:35:42;4.38;;;3.65;;
20038;SDS011;21737;42.868;25.320;2023-06-05T07:38:44;4.32;;;3.45;;
20038;SDS011;21737;42.868;25.320;2023-06-05T07:41:45;4.35;;;3.85;;
20038;SDS011;21737;42.868;25.320;2023-06-05T07:44:47;9.35;;;3.70;;
20038;SDS011;21737;42.868;25.320;2023-06-05T07:47:49;8.50;;;4.10;;
20038;SDS011;21737;42.868;25.320;2023-06-05T07:50:51;5.70;;;3.17;;
20038;SDS011;21737;42.868;25.320;2023-06-05T07:53:53;3.97;;;3.22;;
20038;SDS011;21737;42.868;25.320;2023-06-05T07:56:55;5.78;;;3.30;;
20038;SDS011;21737;42.868;25.320;2023-06-05T07:59:59;3.60;;;3.30;;
20038;SDS011;21737;42.868;25.320;2023-06-05T08:03:00;7.55;;;4.50;;
20038;SDS011;21737;42.868;25.320;2023-06-05T08:06:02;6.45;;;3.17;;
20038;SDS011;21737;42.868;25.320;2023-06-05T08:09:04;4.40;;;3.45;;
20038;SDS011;21737;42.868;25.320;2023-06-05T08:12:07;3.72;;;3.42;;
20038;SDS011;21737;42.868;25.320;2023-06-05T08:15:09;6.97;;;3.60;;
20038;SDS011;21737;42.868;25.320;2023-06-05T08:18:11;5.38;;;3.45;;
20038;SDS011;21737;42.868;25.320;2023-06-05T08:21:13;15.50;;;13.88;;
20038;SDS011;21737;42.868;25.320;2023-06-05T08:24:15;7.35;;;3.90;;
20038;SDS011;21737;42.868;25.320;2023-06-05T08:27:17;6.57;;;4.10;;
20038;SDS011;21737;42.868;25.320;2023-06-05T08:30:19;3.97;;;3.50;;
20038;SDS011;21737;42.868;25.320;2023-06-05T08:33:21;7.43;;;5.18;;
20038;SDS011;21737;42.868;25.320;2023-06-05T08:36:23;7.95;;;4.43;;
20038;SDS011;21737;42.868;25.320;2023-06-05T08:39:26;5.13;;;3.78;;
20038;SDS011;21737;42.868;25.320;2023-06-05T08:42:33;3.55;;;3.17;;
20038;SDS011;21737;42.868;25.320;2023-06-05T08:45:34;6.00;;;3.33;;
20038;SDS011;21737;42.868;25.320;2023-06-05T08:48:47;5.30;;;3.78;;
20038;SDS011;21737;42.868;25.320;2023-06-05T08:51:49;11.80;;;5.03;;
20038;SDS011;21737;42.868;25.320;2023-06-05T08:54:52;7.72;;;4.90;;
20038;SDS011;21737;42.868;25.320;2023-06-05T08:57:54;8.57;;;6.65;;
20038;SDS011;21737;42.868;25.320;2023-06-05T09:00:56;4.03;;;3.67;;
20038;SDS011;21737;42.868;25.320;2023-06-05T09:03:58;4.30;;;3.90;;
20038;SDS011;21737;42.868;25.320;2023-06-05T09:07:00;7.25;;;4.07;;
20038;SDS011;21737;42.868;25.320;2023-06-05T09:10:02;4.40;;;3.70;;
20038;SDS011;21737;42.868;25.320;2023-06-05T09:13:04;5.50;;;3.20;;
20038;SDS011;21737;42.868;25.320;2023-06-05T09:16:06;6.63;;;4.20;;
20038;SDS011;21737;42.868;25.320;2023-06-05T09:19:09;4.43;;;3.45;;
20038;SDS011;21737;42.868;25.320;2023-06-05T09:22:11;5.50;;;4.50;;
20038;SDS011;21737;42.868;25.320;2023-06-05T09:25:14;5.13;;;4.10;;
20038;SDS011;21737;42.868;25.320;2023-06-05T09:28:16;5.20;;;4.70;;
20038;SDS011;21737;42.868;25.320;2023-06-05T09:31:18;5.30;;;4.45;;
20038;SDS011;21737;42.868;25.320;2023-06-05T09:34:42;6.40;;;4.53;;
20038;SDS011;21737;42.868;25.320;2023-06-05T09:37:42;5.32;;;4.38;;
20038;SDS011;21737;42.868;25.320;2023-06-05T09:40:48;5.05;;;4.55;;
20038;SDS011;21737;42.868;25.320;2023-06-05T09:43:49;7.28;;;6.18;;
20038;SDS011;21737;42.868;25.320;2023-06-05T09:50:03;6.57;;;5.07;;
20038;SDS011;21737;42.868;25.320;2023-06-05T09:53:06;7.50;;;5.45;;
20038;SDS011;21737;42.868;25.320;2023-06-05T09:56:12;5.25;;;4.75;;
20038;SDS011;21737;42.868;25.320;2023-06-05T09:59:21;5.85;;;5.25;;
20038;SDS011;21737;42.868;25.320;2023-06-05T10:02:24;8.65;;;4.90;;
20038;SDS011;21737;42.868;25.320;2023-06-05T10:05:27;9.05;;;5.70;;
20038;SDS011;21737;42.868;25.320;2023-06-05T10:08:30;5.20;;;4.72;;
20038;SDS011;21737;42.868;25.320;2023-06-05T10:11:32;6.47;;;5.20;;
20038;SDS011;21737;42.868;25.320;2023-06-05T10:14:34;10.60;;;5.13;;
20038;SDS011;21737;42.868;25.320;2023-06-05T10:17:36;6.82;;;5.38;;
20038;SDS011;21737;42.868;25.320;2023-06-05T10:20:40;4.95;;;4.45;;
20038;SDS011;21737;42.868;25.320;2023-06-05T10:33:55;6.72;;;5.00;;
20038;SDS011;21737;42.868;25.320;2023-06-05T10:40:07;5.88;;;4.35;;
20038;SDS011;21737;42.868;25.320;2023-06-05T10:43:23;6.25;;;4.22;;
20038;SDS011;21737;42.868;25.320;2023-06-05T10:46:34;5.85;;;4.20;;
20038;SDS011;21737;42.868;25.320;2023-06-05T10:49:36;9.40;;;4.90;;
20038;SDS011;21737;42.868;25.320;2023-06-05T10:52:38;5.57;;;4.60;;
20038;SDS011;21737;42.868;25.320;2023-06-05T10:55:41;5.82;;;4.97;;
20038;SDS011;21737;42.868;25.320;2023-06-05T10:59:10;7.32;;;4.57;;
20038;SDS011;21737;42.868;25.320;2023-06-05T11:05:27;11.77;;;5.10;;
20038;SDS011;21737;42.868;25.320;2023-06-05T11:08:29;8.15;;;4.43;;
20038;SDS011;21737;42.868;25.320;2023-06-05T11:11:53;7.65;;;4.68;;
20038;SDS011;21737;42.868;25.320;2023-06-05T11:14:53;6.10;;;4.35;;
20038;SDS011;21737;42.868;25.320;2023-06-05T11:17:54;5.95;;;3.95;;
20038;SDS011;21737;42.868;25.320;2023-06-05T11:20:57;6.00;;;4.05;;
20038;SDS011;21737;42.868;25.320;2023-06-05T11:24:15;4.55;;;4.00;;
20038;SDS011;21737;42.868;25.320;2023-06-05T11:30:39;4.57;;;3.70;;
20038;SDS011;21737;42.868;25.320;2023-06-05T11:33:49;5.72;;;3.90;;
20038;SDS011;21737;42.868;25.320;2023-06-05T11:36:50;5.03;;;3.90;;
20038;SDS011;21737;42.868;25.320;2023-06-05T11:39:52;7.25;;;5.65;;
20038;SDS011;21737;42.868;25.320;2023-06-05T11:43:01;5.38;;;3.70;;
20038;SDS011;21737;42.868;25.320;2023-06-05T11:46:03;7.07;;;3.80;;
20038;SDS011;21737;42.868;25.320;2023-06-05T11:49:04;4.35;;;3.70;;
20038;SDS011;21737;42.868;25.320;2023-06-05T11:52:06;4.95;;;3.53;;
20038;SDS011;21737;42.868;25.320;2023-06-05T11:55:19;8.20;;;3.72;;
20038;SDS011;21737;42.868;25.320;2023-06-05T11:58:23;5.07;;;4.03;;
20038;SDS011;21737;42.868;25.320;2023-06-05T12:01:25;5.20;;;3.83;;
20038;SDS011;21737;42.868;25.320;2023-06-05T12:04:33;6.90;;;4.50;;
20038;SDS011;21737;42.868;25.320;2023-06-05T12:07:35;4.93;;;3.80;;
20038;SDS011;21737;42.868;25.320;2023-06-05T12:10:40;9.07;;;4.18;;
20038;SDS011;21737;42.868;25.320;2023-06-05T12:16:47;5.55;;;3.90;;
20038;SDS011;21737;42.868;25.320;2023-06-05T12:19:52;5.18;;;3.80;;
20038;SDS011;21737;42.868;25.320;2023-06-05T12:22:54;6.72;;;4.15;;
20038;SDS011;21737;42.868;25.320;2023-06-05T12:26:01;7.43;;;4.00;;
20038;SDS011;21737;42.868;25.320;2023-06-05T12:29:03;5.25;;;4.13;;
20038;SDS011;21737;42.868;25.320;2023-06-05T12:32:21;7.63;;;4.78;;
20038;SDS011;21737;42.868;25.320;2023-06-05T12:35:23;4.88;;;3.72;;
20038;SDS011;21737;42.868;25.320;2023-06-05T12:38:26;4.47;;;3.70;;
20038;SDS011;21737;42.868;25.320;2023-06-05T12:41:30;6.45;;;4.43;;
20038;SDS011;21737;42.868;25.320;2023-06-05T12:44:32;7.40;;;4.00;;
20038;SDS011;21737;42.868;25.320;2023-06-05T12:47:34;8.55;;;4.65;;
20038;SDS011;21737;42.868;25.320;2023-06-05T12:50:36;6.97;;;4.20;;
20038;SDS011;21737;42.868;25.320;2023-06-05T12:53:38;7.30;;;5.15;;
20038;SDS011;21737;42.868;25.320;2023-06-05T12:56:41;5.38;;;4.07;;
20038;SDS011;21737;42.868;25.320;2023-06-05T12:59:47;7.00;;;4.43;;
20038;SDS011;21737;42.868;25.320;2023-06-05T13:02:49;6.15;;;3.75;;
20038;SDS011;21737;42.868;25.320;2023-06-05T13:05:51;6.68;;;4.13;;
20038;SDS011;21737;42.868;25.320;2023-06-05T13:08:52;7.75;;;4.05;;
20038;SDS011;21737;42.868;25.320;2023-06-05T13:11:54;6.97;;;4.07;;
20038;SDS011;21737;42.868;25.320;2023-06-05T13:14:57;6.88;;;4.05;;
20038;SDS011;21737;42.868;25.320;2023-06-05T13:17:58;7.47;;;4.05;;
20038;SDS011;21737;42.868;25.320;2023-06-05T13:21:01;5.65;;;4.20;;
20038;SDS011;21737;42.868;25.320;2023-06-05T13:24:02;6.45;;;4.00;;
20038;SDS011;21737;42.868;25.320;2023-06-05T13:27:04;5.03;;;3.80;;
20038;SDS011;21737;42.868;25.320;2023-06-05T13:30:06;8.43;;;4.00;;
20038;SDS011;21737;42.868;25.320;2023-06-05T13:33:08;6.60;;;3.83;;
20038;SDS011;21737;42.868;25.320;2023-06-05T13:36:10;6.15;;;4.32;;
20038;SDS011;21737;42.868;25.320;2023-06-05T13:39:12;9.75;;;6.53;;
20038;SDS011;21737;42.868;25.320;2023-06-05T13:42:13;8.67;;;5.40;;
20038;SDS011;21737;42.868;25.320;2023-06-05T13:45:15;9.17;;;4.87;;
20038;SDS011;21737;42.868;25.320;2023-06-05T13:48:17;7.30;;;4.00;;
20038;SDS011;21737;42.868;25.320;2023-06-05T13:51:19;8.25;;;4.00;;
20038;SDS011;21737;42.868;25.320;2023-06-05T13:54:21;6.53;;;3.90;;
20038;SDS011;21737;42.868;25.320;2023-06-05T13:57:22;7.05;;;5.00;;
20038;SDS011;21737;42.868;25.320;2023-06-05T14:00:24;4.88;;;3.85;;
20038;SDS011;21737;42.868;25.320;2023-06-05T14:03:26;5.63;;;3.53;;
20038;SDS011;21737;42.868;25.320;2023-06-05T14:06:28;5.03;;;4.13;;
20038;SDS011;21737;42.868;25.320;2023-06-05T14:09:30;5.28;;;4.13;;
20038;SDS011;21737;42.868;25.320;2023-06-05T14:12:32;7.07;;;4.88;;
20038;SDS011;21737;42.868;25.320;2023-06-05T14:15:33;10.85;;;4.93;;
20038;SDS011;21737;42.868;25.320;2023-06-05T14:18:36;7.60;;;4.82;;
20038;SDS011;21737;42.868;25.320;2023-06-05T14:21:38;6.40;;;4.30;;
20038;SDS011;21737;42.868;25.320;2023-06-05T14:24:41;7.47;;;4.78;;
20038;SDS011;21737;42.868;25.320;2023-06-05T14:27:43;6.15;;;4.72;;
20038;SDS011;21737;42.868;25.320;2023-06-05T14:30:45;6.68;;;4.60;;
20038;SDS011;21737;42.868;25.320;2023-06-05T14:33:47;6.97;;;4.70;;
20038;SDS011;21737;42.868;25.320;2023-06-05T14:36:49;7.70;;;4.73;;
20038;SDS011;21737;42.868;25.320;2023-06-05T14:39:53;8.10;;;4.50;;
20038;SDS011;21737;42.868;25.320;2023-06-05T14:42:55;4.83;;;4.03;;
20038;SDS011;21737;42.868;25.320;2023-06-05T14:45:57;5.57;;;4.17;;
20038;SDS011;21737;42.868;25.320;2023-06-05T14:48:59;6.83;;;4.33;;
20038;SDS011;21737;42.868;25.320;2023-06-05T14:52:00;7.97;;;4.60;;
20038;SDS011;21737;42.868;25.320;2023-06-05T14:55:02;7.57;;;5.10;;
20038;SDS011;21737;42.868;25.320;2023-06-05T14:58:07;11.20;;;6.10;;
20038;SDS011;21737;42.868;25.320;2023-06-05T15:01:11;7.97;;;5.03;;
20038;SDS011;21737;42.868;25.320;2023-06-05T15:04:15;7.67;;;4.80;;
20038;SDS011;21737;42.868;25.320;2023-06-05T15:07:18;8.82;;;5.57;;
20038;SDS011;21737;42.868;25.320;2023-06-05T15:10:21;10.57;;;6.20;;
20038;SDS011;21737;42.868;25.320;2023-06-05T15:13:23;10.20;;;4.60;;
20038;SDS011;21737;42.868;25.320;2023-06-05T15:16:25;6.77;;;4.17;;
20038;SDS011;21737;42.868;25.320;2023-06-05T15:19:45;5.10;;;4.37;;
20038;SDS011;21737;42.868;25.320;2023-06-05T15:22:47;8.87;;;4.60;;
20038;SDS011;21737;42.868;25.320;2023-06-05T15:26:08;7.63;;;4.80;;
20038;SDS011;21737;42.868;25.320;2023-06-05T15:29:09;5.13;;;3.93;;
20038;SDS011;21737;42.868;25.320;2023-06-05T15:32:11;7.03;;;4.60;;
20038;SDS011;21737;42.868;25.320;2023-06-05T15:35:18;8.33;;;4.40;;
20038;SDS011;21737;42.868;25.320;2023-06-05T15:38:24;9.93;;;3.50;;
20038;SDS011;21737;42.868;25.320;2023-06-05T15:41:30;6.87;;;4.60;;
20038;SDS011;21737;42.868;25.320;2023-06-05T15:44:32;12.87;;;6.80;;
20038;SDS011;21737;42.868;25.320;2023-06-05T15:47:34;7.77;;;4.13;;
20038;SDS011;21737;42.868;25.320;2023-06-05T15:50:37;13.87;;;8.43;;
20038;SDS011;21737;42.868;25.320;2023-06-05T15:53:41;6.27;;;4.63;;
20038;SDS011;21737;42.868;25.320;2023-06-05T15:57:07;8.97;;;4.70;;
20038;SDS011;21737;42.868;25.320;2023-06-05T16:00:12;9.27;;;4.87;;
20038;SDS011;21737;42.868;25.320;2023-06-05T16:03:14;8.63;;;4.00;;
20038;SDS011;21737;42.868;25.320;2023-06-05T16:06:19;5.97;;;3.03;;
20038;SDS011;21737;42.868;25.320;2023-06-05T16:09:21;4.40;;;3.33;;
20038;SDS011;21737;42.868;25.320;2023-06-05T16:12:23;5.17;;;3.40;;
20038;SDS011;21737;42.868;25.320;2023-06-05T16:15:25;5.27;;;3.30;;
20038;SDS011;21737;42.868;25.320;2023-06-05T16:18:28;5.83;;;3.60;;
20038;SDS011;21737;42.868;25.320;2023-06-05T16:21:30;11.13;;;5.70;;
20038;SDS011;21737;42.868;25.320;2023-06-05T16:24:31;11.83;;;4.03;;
20038;SDS011;21737;42.868;25.320;2023-06-05T16:27:39;5.90;;;3.00;;
20038;SDS011;21737;42.868;25.320;2023-06-05T16:30:41;6.40;;;3.57;;
20038;SDS011;21737;42.868;25.320;2023-06-05T16:33:45;12.53;;;3.80;;
20038;SDS011;21737;42.868;25.320;2023-06-05T16:36:48;11.23;;;4.03;;
20038;SDS011;21737;42.868;25.320;2023-06-05T16:39:52;5.43;;;4.07;;
20038;SDS011;21737;42.868;25.320;2023-06-05T16:42:54;12.90;;;5.53;;
20038;SDS011;21737;42.868;25.320;2023-06-05T16:45:55;8.27;;;4.43;;
20038;SDS011;21737;42.868;25.320;2023-06-05T16:48:57;5.83;;;3.17;;
20038;SDS011;21737;42.868;25.320;2023-06-05T16:51:59;5.70;;;3.33;;
20038;SDS011;21737;42.868;25.320;2023-06-05T16:55:04;3.77;;;2.83;;
20038;SDS011;21737;42.868;25.320;2023-06-05T16:58:07;5.67;;;3.10;;
20038;SDS011;21737;42.868;25.320;2023-06-05T17:01:11;5.47;;;3.00;;
20038;SDS011;21737;42.868;25.320;2023-06-05T17:04:13;5.97;;;3.30;;
20038;SDS011;21737;42.868;25.320;2023-06-05T17:07:18;6.37;;;3.40;;
20038;SDS011;21737;42.868;25.320;2023-06-05T17:10:20;7.70;;;4.00;;
20038;SDS011;21737;42.868;25.320;2023-06-05T17:13:22;6.20;;;3.70;;
20038;SDS011;21737;42.868;25.320;2023-06-05T17:16:24;8.67;;;4.27;;
20038;SDS011;21737;42.868;25.320;2023-06-05T17:19:25;9.40;;;3.97;;
20038;SDS011;21737;42.868;25.320;2023-06-05T17:22:27;7.27;;;3.87;;
20038;SDS011;21737;42.868;25.320;2023-06-05T17:25:29;7.43;;;3.50;;
20038;SDS011;21737;42.868;25.320;2023-06-05T17:28:31;5.73;;;3.40;;
20038;SDS011;21737;42.868;25.320;2023-06-05T17:31:32;7.93;;;3.40;;
20038;SDS011;21737;42.868;25.320;2023-06-05T17:34:34;8.13;;;3.33;;
20038;SDS011;21737;42.868;25.320;2023-06-05T17:37:36;6.37;;;4.07;;
20038;SDS011;21737;42.868;25.320;2023-06-05T17:40:37;5.17;;;4.40;;
20038;SDS011;21737;42.868;25.320;2023-06-05T17:43:41;6.63;;;4.00;;
20038;SDS011;21737;42.868;25.320;2023-06-05T17:46:43;5.07;;;3.90;;
20038;SDS011;21737;42.868;25.320;2023-06-05T17:49:45;3.97;;;3.50;;
20038;SDS011;21737;42.868;25.320;2023-06-05T17:52:47;6.50;;;3.53;;
20038;SDS011;21737;42.868;25.320;2023-06-05T17:55:49;4.83;;;3.50;;
20038;SDS011;21737;42.868;25.320;2023-06-05T17:58:51;8.63;;;3.67;;
20038;SDS011;21737;42.868;25.320;2023-06-05T18:01:53;7.40;;;3.60;;
20038;SDS011;21737;42.868;25.320;2023-06-05T18:04:56;5.13;;;3.53;;
20038;SDS011;21737;42.868;25.320;2023-06-05T18:07:59;5.80;;;3.43;;
20038;SDS011;21737;42.868;25.320;2023-06-05T18:11:01;6.17;;;3.60;;
20038;SDS011;21737;42.868;25.320;2023-06-05T18:14:03;8.67;;;3.60;;
20038;SDS011;21737;42.868;25.320;2023-06-05T18:17:05;4.50;;;2.97;;
20038;SDS011;21737;42.868;25.320;2023-06-05T18:20:07;3.43;;;2.80;;
20038;SDS011;21737;42.868;25.320;2023-06-05T18:23:09;10.30;;;3.90;;
20038;SDS011;21737;42.868;25.320;2023-06-05T18:26:11;5.60;;;3.37;;
20038;SDS011;21737;42.868;25.320;2023-06-05T18:29:19;6.80;;;4.10;;